Startpagina
METAR-TAF:

METAR-TAF

Vliegvelden :

Kairouan, Tunesië

breedte: 35-40N, lengte: 010-06E, hoogte: 60 m

Actueel weer

Dit bericht is 52 minuten geleden gemaakt, om 08:00 UTC
Weinig wind
Temperatuur 19°C
Vochtigheid 88%
Druk 1012 hPa
Zicht: 8000 m
Gebroken wolken op 2300 ft
Verspreide wolken op 3000 ft

METAR: DTTK 250800Z 00000KT 8000 BKN023 SCT030 19/17 Q1012

Tijdstip: 09:52 (08:52 UTC)


TAF: ontbreekt

Waarnemingen en weersverwachtingen van meer dan 4000 vliegvelden (METAR en TAF).

De beschikbare stations zijn de gele en rode punten op de kaart.

Ga met uw muis naar het station om de naam te zien.

Klik dan om waarnemingen en weersverwachtingen te zien.

kaart wijzigen: klik op de groene knoppen met een zwart kruis om in te zoomen, op de groene knop met een streepje om uit te zoomen of op de groene pijlen voor aangrenzende kaarten.


METAR-TAF: